Airport View

Enter AWOS ICAO identifier for current METAR.

ex. KFNL

KTRK 100355Z AUTO 35003KT 10SM CLR 16/01 A3019 RMK AO2

10 Jul 2020 04:11

Frequency: 118.0

Phone: 530-587-4599

Other Area AWOS: KCXP - KRNO - KRTS - KTVL

TAF KTRK 092339Z 1000/1024 26012G21KT P6SM SKC FM100200 27009KT P6SM SKC FM100300 VRB03KT P6SM SKC FM102000 27010G18KT P6SM SCT250